sensor_id;sensor_type;location;lat;lon;timestamp;temperature;humidity
59098;DHT22;44883;52.760;6.610;2022-12-18T00:01:35;-3.10;99.90
59098;DHT22;44883;52.760;6.610;2022-12-18T00:04:03;-3.10;99.90
59098;DHT22;44883;52.760;6.610;2022-12-18T00:06:30;-3.10;99.90
59098;DHT22;44883;52.760;6.610;2022-12-18T00:08:57;-3.10;99.90
59098;DHT22;44883;52.760;6.610;2022-12-18T00:11:25;-3.10;99.90
59098;DHT22;44883;52.760;6.610;2022-12-18T00:13:53;-3.10;99.90
59098;DHT22;44883;52.760;6.610;2022-12-18T00:16:21;-3.10;99.90
59098;DHT22;44883;52.760;6.610;2022-12-18T00:18:48;-3.10;99.90
59098;DHT22;44883;52.760;6.610;2022-12-18T00:21:15;-3.10;99.90
59098;DHT22;44883;52.760;6.610;2022-12-18T00:23:42;-3.10;99.90
59098;DHT22;44883;52.760;6.610;2022-12-18T00:26:14;-3.10;99.90
59098;DHT22;44883;52.760;6.610;2022-12-18T00:28:40;-3.10;99.90
59098;DHT22;44883;52.760;6.610;2022-12-18T00:31:14;-3.10;99.90
59098;DHT22;44883;52.760;6.610;2022-12-18T00:33:40;-3.10;99.90
59098;DHT22;44883;52.760;6.610;2022-12-18T00:36:17;-3.10;99.90
59098;DHT22;44883;52.760;6.610;2022-12-18T00:38:43;-3.10;99.90
59098;DHT22;44883;52.760;6.610;2022-12-18T00:41:10;-3.20;99.90
59098;DHT22;44883;52.760;6.610;2022-12-18T00:43:37;-3.20;99.90
59098;DHT22;44883;52.760;6.610;2022-12-18T00:46:03;-3.20;99.90
59098;DHT22;44883;52.760;6.610;2022-12-18T00:48:29;-3.20;99.90
59098;DHT22;44883;52.760;6.610;2022-12-18T00:50:56;-3.20;99.90
59098;DHT22;44883;52.760;6.610;2022-12-18T00:53:21;-3.30;99.90
59098;DHT22;44883;52.760;6.610;2022-12-18T00:55:47;-3.30;99.90
59098;DHT22;44883;52.760;6.610;2022-12-18T00:58:14;-3.30;99.90
59098;DHT22;44883;52.760;6.610;2022-12-18T01:00:40;-3.40;99.90
59098;DHT22;44883;52.760;6.610;2022-12-18T01:03:06;-3.40;99.90
59098;DHT22;44883;52.760;6.610;2022-12-18T01:05:32;-3.50;99.90
59098;DHT22;44883;52.760;6.610;2022-12-18T01:07:58;-3.50;99.90
59098;DHT22;44883;52.760;6.610;2022-12-18T01:10:25;-3.60;99.90
59098;DHT22;44883;52.760;6.610;2022-12-18T01:12:52;-3.60;99.90
59098;DHT22;44883;52.760;6.610;2022-12-18T01:15:18;-3.60;99.90
59098;DHT22;44883;52.760;6.610;2022-12-18T01:17:44;-3.60;99.90
59098;DHT22;44883;52.760;6.610;2022-12-18T01:20:11;-3.60;99.90
59098;DHT22;44883;52.760;6.610;2022-12-18T01:22:37;-3.70;99.90
59098;DHT22;44883;52.760;6.610;2022-12-18T01:25:04;-3.60;99.90
59098;DHT22;44883;52.760;6.610;2022-12-18T01:27:30;-3.70;99.90
59098;DHT22;44883;52.760;6.610;2022-12-18T01:29:55;-3.70;99.90
59098;DHT22;44883;52.760;6.610;2022-12-18T01:32:21;-3.80;99.90
59098;DHT22;44883;52.760;6.610;2022-12-18T01:34:47;-3.80;99.90
59098;DHT22;44883;52.760;6.610;2022-12-18T01:37:13;-3.90;99.90
59098;DHT22;44883;52.760;6.610;2022-12-18T01:39:39;-3.90;99.90
59098;DHT22;44883;52.760;6.610;2022-12-18T01:42:12;-4.00;99.90
59098;DHT22;44883;52.760;6.610;2022-12-18T01:50:11;-4.10;99.90
59098;DHT22;44883;52.760;6.610;2022-12-18T01:52:37;-4.20;99.90
59098;DHT22;44883;52.760;6.610;2022-12-18T01:55:05;-4.20;99.90
59098;DHT22;44883;52.760;6.610;2022-12-18T01:57:31;-4.30;99.90
59098;DHT22;44883;52.760;6.610;2022-12-18T02:00:01;-4.30;99.90
59098;DHT22;44883;52.760;6.610;2022-12-18T02:02:28;-4.30;99.90
59098;DHT22;44883;52.760;6.610;2022-12-18T02:04:54;-4.40;99.90
59098;DHT22;44883;52.760;6.610;2022-12-18T02:15:54;-4.50;99.90
59098;DHT22;44883;52.760;6.610;2022-12-18T02:18:33;-4.50;99.90
59098;DHT22;44883;52.760;6.610;2022-12-18T02:21:19;-4.50;99.90
59098;DHT22;44883;52.760;6.610;2022-12-18T02:26:48;-4.60;99.90
59098;DHT22;44883;52.760;6.610;2022-12-18T02:29:19;-4.60;99.90
59098;DHT22;44883;52.760;6.610;2022-12-18T02:32:00;-4.60;99.90
59098;DHT22;44883;52.760;6.610;2022-12-18T02:34:33;-4.60;99.90
59098;DHT22;44883;52.760;6.610;2022-12-18T02:37:03;-4.70;99.90
59098;DHT22;44883;52.760;6.610;2022-12-18T02:39:31;-4.70;99.90
59098;DHT22;44883;52.760;6.610;2022-12-18T02:41:58;-4.70;99.90
59098;DHT22;44883;52.760;6.610;2022-12-18T02:44:24;-4.70;99.90
59098;DHT22;44883;52.760;6.610;2022-12-18T02:46:52;-4.80;99.90
59098;DHT22;44883;52.760;6.610;2022-12-18T02:52:21;-4.80;99.90
59098;DHT22;44883;52.760;6.610;2022-12-18T02:54:53;-4.80;99.90
59098;DHT22;44883;52.760;6.610;2022-12-18T03:00:10;-4.80;99.90
59098;DHT22;44883;52.760;6.610;2022-12-18T03:03:04;-4.80;99.90
59098;DHT22;44883;52.760;6.610;2022-12-18T03:05:48;-4.80;99.90
59098;DHT22;44883;52.760;6.610;2022-12-18T03:08:20;-4.90;99.90
59098;DHT22;44883;52.760;6.610;2022-12-18T03:10:55;-4.90;99.90
59098;DHT22;44883;52.760;6.610;2022-12-18T03:13:35;-4.90;99.90
59098;DHT22;44883;52.760;6.610;2022-12-18T03:16:03;-5.00;99.90
59098;DHT22;44883;52.760;6.610;2022-12-18T03:18:40;-4.90;99.90
59098;DHT22;44883;52.760;6.610;2022-12-18T03:21:09;-5.00;99.90
59098;DHT22;44883;52.760;6.610;2022-12-18T03:23:42;-5.00;99.90
59098;DHT22;44883;52.760;6.610;2022-12-18T03:26:10;-5.00;99.90
59098;DHT22;44883;52.760;6.610;2022-12-18T03:28:43;-5.10;99.90
59098;DHT22;44883;52.760;6.610;2022-12-18T03:31:10;-5.10;99.90
59098;DHT22;44883;52.760;6.610;2022-12-18T03:34:00;-5.10;99.90
59098;DHT22;44883;52.760;6.610;2022-12-18T03:36:27;-5.20;99.90
59098;DHT22;44883;52.760;6.610;2022-12-18T03:38:56;-5.20;99.90
59098;DHT22;44883;52.760;6.610;2022-12-18T03:52:51;-5.30;99.90
59098;DHT22;44883;52.760;6.610;2022-12-18T03:55:21;-5.30;99.90
59098;DHT22;44883;52.760;6.610;2022-12-18T03:57:48;-5.30;99.90
59098;DHT22;44883;52.760;6.610;2022-12-18T04:00:16;-5.30;99.90
59098;DHT22;44883;52.760;6.610;2022-12-18T04:02:46;-5.30;99.90
59098;DHT22;44883;52.760;6.610;2022-12-18T04:05:13;-5.30;99.90
59098;DHT22;44883;52.760;6.610;2022-12-18T04:07:39;-5.30;99.90
59098;DHT22;44883;52.760;6.610;2022-12-18T04:10:07;-5.30;99.90
59098;DHT22;44883;52.760;6.610;2022-12-18T04:12:33;-5.30;99.90
59098;DHT22;44883;52.760;6.610;2022-12-18T04:14:59;-5.30;99.90
59098;DHT22;44883;52.760;6.610;2022-12-18T04:17:24;-5.30;99.90
59098;DHT22;44883;52.760;6.610;2022-12-18T04:19:50;-5.30;99.90
59098;DHT22;44883;52.760;6.610;2022-12-18T04:22:16;-5.30;99.90
59098;DHT22;44883;52.760;6.610;2022-12-18T04:24:41;-5.30;99.90
59098;DHT22;44883;52.760;6.610;2022-12-18T04:27:07;-5.40;99.90
59098;DHT22;44883;52.760;6.610;2022-12-18T04:29:33;-5.40;99.90
59098;DHT22;44883;52.760;6.610;2022-12-18T04:31:58;-5.40;99.90
59098;DHT22;44883;52.760;6.610;2022-12-18T04:34:24;-5.40;99.90
59098;DHT22;44883;52.760;6.610;2022-12-18T04:36:49;-5.40;99.90
59098;DHT22;44883;52.760;6.610;2022-12-18T04:39:15;-5.40;99.90
59098;DHT22;44883;52.760;6.610;2022-12-18T04:41:41;-5.40;99.90
59098;DHT22;44883;52.760;6.610;2022-12-18T04:44:06;-5.40;99.90
59098;DHT22;44883;52.760;6.610;2022-12-18T04:46:32;-5.40;99.90
59098;DHT22;44883;52.760;6.610;2022-12-18T04:48:58;-5.40;99.90
59098;DHT22;44883;52.760;6.610;2022-12-18T04:51:23;-5.40;99.90
59098;DHT22;44883;52.760;6.610;2022-12-18T04:53:49;-5.40;99.90
59098;DHT22;44883;52.760;6.610;2022-12-18T04:56:15;-5.40;99.90
59098;DHT22;44883;52.760;6.610;2022-12-18T04:58:42;-5.40;99.90
59098;DHT22;44883;52.760;6.610;2022-12-18T05:01:09;-5.50;99.90
59098;DHT22;44883;52.760;6.610;2022-12-18T05:03:35;-5.50;99.90
59098;DHT22;44883;52.760;6.610;2022-12-18T05:06:02;-5.50;99.90
59098;DHT22;44883;52.760;6.610;2022-12-18T05:08:28;-5.50;99.90
59098;DHT22;44883;52.760;6.610;2022-12-18T05:11:02;-5.60;99.90
59098;DHT22;44883;52.760;6.610;2022-12-18T05:13:28;-5.50;99.90
59098;DHT22;44883;52.760;6.610;2022-12-18T05:15:55;-5.50;99.90
59098;DHT22;44883;52.760;6.610;2022-12-18T05:18:21;-5.50;99.90
59098;DHT22;44883;52.760;6.610;2022-12-18T05:20:47;-5.60;99.90
59098;DHT22;44883;52.760;6.610;2022-12-18T05:23:13;-5.60;99.90
59098;DHT22;44883;52.760;6.610;2022-12-18T05:25:38;-5.60;99.90
59098;DHT22;44883;52.760;6.610;2022-12-18T05:28:04;-5.60;99.90
59098;DHT22;44883;52.760;6.610;2022-12-18T05:30:29;-5.60;99.90
59098;DHT22;44883;52.760;6.610;2022-12-18T05:32:55;-5.60;99.90
59098;DHT22;44883;52.760;6.610;2022-12-18T05:35:21;-5.60;99.90
59098;DHT22;44883;52.760;6.610;2022-12-18T05:37:46;-5.60;99.90
59098;DHT22;44883;52.760;6.610;2022-12-18T05:40:12;-5.60;99.90
59098;DHT22;44883;52.760;6.610;2022-12-18T05:42:37;-5.70;99.90
59098;DHT22;44883;52.760;6.610;2022-12-18T05:45:04;-5.70;99.90
59098;DHT22;44883;52.760;6.610;2022-12-18T05:47:30;-5.70;99.90
59098;DHT22;44883;52.760;6.610;2022-12-18T05:49:56;-5.70;99.90
59098;DHT22;44883;52.760;6.610;2022-12-18T05:52:21;-5.70;99.90
59098;DHT22;44883;52.760;6.610;2022-12-18T05:54:47;-5.70;99.90
59098;DHT22;44883;52.760;6.610;2022-12-18T05:57:13;-5.80;99.90
59098;DHT22;44883;52.760;6.610;2022-12-18T05:59:38;-5.80;99.90
59098;DHT22;44883;52.760;6.610;2022-12-18T06:02:04;-5.80;99.90
59098;DHT22;44883;52.760;6.610;2022-12-18T06:04:30;-5.80;99.90
59098;DHT22;44883;52.760;6.610;2022-12-18T06:06:56;-5.90;99.90
59098;DHT22;44883;52.760;6.610;2022-12-18T06:09:21;-5.90;99.90
59098;DHT22;44883;52.760;6.610;2022-12-18T06:11:47;-5.90;99.90
59098;DHT22;44883;52.760;6.610;2022-12-18T06:14:16;-5.90;99.90
59098;DHT22;44883;52.760;6.610;2022-12-18T06:16:42;-5.90;99.90
59098;DHT22;44883;52.760;6.610;2022-12-18T06:19:12;-6.00;99.90
59098;DHT22;44883;52.760;6.610;2022-12-18T06:21:38;-6.00;99.90
59098;DHT22;44883;52.760;6.610;2022-12-18T06:24:04;-6.00;99.90
59098;DHT22;44883;52.760;6.610;2022-12-18T06:26:30;-6.00;99.90
59098;DHT22;44883;52.760;6.610;2022-12-18T06:28:56;-6.00;99.90
59098;DHT22;44883;52.760;6.610;2022-12-18T06:31:21;-6.10;99.90
59098;DHT22;44883;52.760;6.610;2022-12-18T06:33:47;-6.00;99.90
59098;DHT22;44883;52.760;6.610;2022-12-18T06:36:13;-6.10;99.90
59098;DHT22;44883;52.760;6.610;2022-12-18T06:38:41;-6.10;99.90
59098;DHT22;44883;52.760;6.610;2022-12-18T06:41:13;-6.10;99.90
59098;DHT22;44883;52.760;6.610;2022-12-18T06:43:39;-6.10;99.90
59098;DHT22;44883;52.760;6.610;2022-12-18T06:46:05;-6.10;99.90
59098;DHT22;44883;52.760;6.610;2022-12-18T06:48:31;-6.10;99.90
59098;DHT22;44883;52.760;6.610;2022-12-18T06:50:57;-6.20;99.90
59098;DHT22;44883;52.760;6.610;2022-12-18T06:53:23;-6.20;99.90
59098;DHT22;44883;52.760;6.610;2022-12-18T06:55:49;-6.20;99.90
59098;DHT22;44883;52.760;6.610;2022-12-18T06:58:14;-6.20;99.90
59098;DHT22;44883;52.760;6.610;2022-12-18T07:00:41;-6.20;99.90
59098;DHT22;44883;52.760;6.610;2022-12-18T07:03:06;-6.20;99.90
59098;DHT22;44883;52.760;6.610;2022-12-18T07:05:32;-6.20;99.90
59098;DHT22;44883;52.760;6.610;2022-12-18T07:07:58;-6.20;99.90
59098;DHT22;44883;52.760;6.610;2022-12-18T07:10:24;-6.10;99.90
59098;DHT22;44883;52.760;6.610;2022-12-18T07:12:50;-6.10;99.90
59098;DHT22;44883;52.760;6.610;2022-12-18T07:15:15;-6.10;99.90
59098;DHT22;44883;52.760;6.610;2022-12-18T07:17:41;-6.10;99.90
59098;DHT22;44883;52.760;6.610;2022-12-18T07:20:07;-6.10;99.90
59098;DHT22;44883;52.760;6.610;2022-12-18T07:22:32;-6.10;99.90
59098;DHT22;44883;52.760;6.610;2022-12-18T07:24:58;-6.10;99.90
59098;DHT22;44883;52.760;6.610;2022-12-18T07:27:24;-6.10;99.90
59098;DHT22;44883;52.760;6.610;2022-12-18T07:29:49;-6.10;99.90
59098;DHT22;44883;52.760;6.610;2022-12-18T07:32:15;-6.10;99.90
59098;DHT22;44883;52.760;6.610;2022-12-18T07:34:41;-6.10;99.90
59098;DHT22;44883;52.760;6.610;2022-12-18T07:37:06;-6.00;99.90
59098;DHT22;44883;52.760;6.610;2022-12-18T07:39:32;-6.00;99.90
59098;DHT22;44883;52.760;6.610;2022-12-18T07:41:58;-6.00;99.90
59098;DHT22;44883;52.760;6.610;2022-12-18T07:44:42;-6.00;99.90
59098;DHT22;44883;52.760;6.610;2022-12-18T07:47:07;-6.00;99.90
59098;DHT22;44883;52.760;6.610;2022-12-18T07:49:33;-6.00;99.90
59098;DHT22;44883;52.760;6.610;2022-12-18T07:51:59;-5.90;99.90
59098;DHT22;44883;52.760;6.610;2022-12-18T07:54:24;-5.90;99.90
59098;DHT22;44883;52.760;6.610;2022-12-18T07:56:51;-5.80;99.90
59098;DHT22;44883;52.760;6.610;2022-12-18T07:59:17;-5.80;99.90
59098;DHT22;44883;52.760;6.610;2022-12-18T08:01:43;-5.50;99.90
59098;DHT22;44883;52.760;6.610;2022-12-18T08:04:08;-5.30;99.90
59098;DHT22;44883;52.760;6.610;2022-12-18T08:06:34;-5.20;99.90
59098;DHT22;44883;52.760;6.610;2022-12-18T08:08:59;-5.10;99.90
59098;DHT22;44883;52.760;6.610;2022-12-18T08:11:26;-5.00;99.90
59098;DHT22;44883;52.760;6.610;2022-12-18T08:13:53;-5.00;99.90
59098;DHT22;44883;52.760;6.610;2022-12-18T08:16:19;-5.00;99.90
59098;DHT22;44883;52.760;6.610;2022-12-18T08:18:45;-5.10;99.90
59098;DHT22;44883;52.760;6.610;2022-12-18T08:21:13;-5.10;99.90
59098;DHT22;44883;52.760;6.610;2022-12-18T08:23:40;-5.10;99.90
59098;DHT22;44883;52.760;6.610;2022-12-18T08:26:06;-5.00;99.90
59098;DHT22;44883;52.760;6.610;2022-12-18T08:28:32;-5.10;99.90
59098;DHT22;44883;52.760;6.610;2022-12-18T08:30:58;-5.10;99.90
59098;DHT22;44883;52.760;6.610;2022-12-18T08:33:24;-5.10;99.90
59098;DHT22;44883;52.760;6.610;2022-12-18T08:35:49;-5.00;99.90
59098;DHT22;44883;52.760;6.610;2022-12-18T08:38:15;-5.00;99.90
59098;DHT22;44883;52.760;6.610;2022-12-18T08:40:41;-5.00;99.90
59098;DHT22;44883;52.760;6.610;2022-12-18T08:43:08;-5.00;99.90
59098;DHT22;44883;52.760;6.610;2022-12-18T08:45:53;-4.90;99.90
59098;DHT22;44883;52.760;6.610;2022-12-18T08:48:19;-4.90;99.90
59098;DHT22;44883;52.760;6.610;2022-12-18T08:50:54;-4.90;99.90
59098;DHT22;44883;52.760;6.610;2022-12-18T08:53:19;-4.80;99.90
59098;DHT22;44883;52.760;6.610;2022-12-18T08:55:45;-4.70;99.90
59098;DHT22;44883;52.760;6.610;2022-12-18T08:58:10;-4.70;99.90
59098;DHT22;44883;52.760;6.610;2022-12-18T09:00:36;-4.60;99.90
59098;DHT22;44883;52.760;6.610;2022-12-18T09:03:02;-4.50;99.90
59098;DHT22;44883;52.760;6.610;2022-12-18T09:05:27;-4.50;99.90
59098;DHT22;44883;52.760;6.610;2022-12-18T09:07:53;-4.40;99.90
59098;DHT22;44883;52.760;6.610;2022-12-18T09:10:18;-4.30;99.90
59098;DHT22;44883;52.760;6.610;2022-12-18T09:12:44;-4.20;99.90
59098;DHT22;44883;52.760;6.610;2022-12-18T09:15:10;-4.20;99.90
59098;DHT22;44883;52.760;6.610;2022-12-18T09:17:35;-4.10;99.90
59098;DHT22;44883;52.760;6.610;2022-12-18T09:20:01;-4.00;99.90
59098;DHT22;44883;52.760;6.610;2022-12-18T09:22:26;-4.00;99.90
59098;DHT22;44883;52.760;6.610;2022-12-18T09:24:52;-3.90;99.90
59098;DHT22;44883;52.760;6.610;2022-12-18T09:27:17;-3.90;99.90
59098;DHT22;44883;52.760;6.610;2022-12-18T09:29:43;-3.80;99.90
59098;DHT22;44883;52.760;6.610;2022-12-18T09:32:09;-3.80;99.90
59098;DHT22;44883;52.760;6.610;2022-12-18T09:34:34;-3.70;99.90
59098;DHT22;44883;52.760;6.610;2022-12-18T09:37:00;-3.60;99.90
59098;DHT22;44883;52.760;6.610;2022-12-18T09:39:25;-3.50;99.90
59098;DHT22;44883;52.760;6.610;2022-12-18T09:41:54;-3.50;99.90
59098;DHT22;44883;52.760;6.610;2022-12-18T09:44:33;-3.50;99.90
59098;DHT22;44883;52.760;6.610;2022-12-18T09:49:43;-3.40;99.90
59098;DHT22;44883;52.760;6.610;2022-12-18T09:57:47;-3.20;99.90
59098;DHT22;44883;52.760;6.610;2022-12-18T10:00:25;-3.10;99.90
59098;DHT22;44883;52.760;6.610;2022-12-18T10:03:00;-3.00;99.90
59098;DHT22;44883;52.760;6.610;2022-12-18T10:10:53;-2.90;99.90
59098;DHT22;44883;52.760;6.610;2022-12-18T10:13:21;-2.80;99.90
59098;DHT22;44883;52.760;6.610;2022-12-18T10:16:15;-2.80;99.90
59098;DHT22;44883;52.760;6.610;2022-12-18T10:21:34;-2.70;99.90
59098;DHT22;44883;52.760;6.610;2022-12-18T10:24:13;-2.70;99.90
59098;DHT22;44883;52.760;6.610;2022-12-18T10:26:41;-2.70;99.90
59098;DHT22;44883;52.760;6.610;2022-12-18T10:29:17;-2.70;99.90
59098;DHT22;44883;52.760;6.610;2022-12-18T10:31:42;-2.70;99.90
59098;DHT22;44883;52.760;6.610;2022-12-18T10:34:12;-2.70;99.90
59098;DHT22;44883;52.760;6.610;2022-12-18T10:36:37;-2.70;99.90
59098;DHT22;44883;52.760;6.610;2022-12-18T10:41:41;-2.60;99.90
59098;DHT22;44883;52.760;6.610;2022-12-18T10:44:18;-2.60;99.90
59098;DHT22;44883;52.760;6.610;2022-12-18T10:46:50;-2.50;99.90
59098;DHT22;44883;52.760;6.610;2022-12-18T10:49:35;-2.50;99.90
59098;DHT22;44883;52.760;6.610;2022-12-18T10:54:32;-2.30;99.90
59098;DHT22;44883;52.760;6.610;2022-12-18T10:57:36;-2.30;99.90
59098;DHT22;44883;52.760;6.610;2022-12-18T11:02:48;-2.20;99.90
59098;DHT22;44883;52.760;6.610;2022-12-18T11:05:32;-2.20;99.90
59098;DHT22;44883;52.760;6.610;2022-12-18T11:07:59;-2.20;99.90
59098;DHT22;44883;52.760;6.610;2022-12-18T11:10:32;-2.10;99.90
59098;DHT22;44883;52.760;6.610;2022-12-18T11:13:31;-2.10;99.90
59098;DHT22;44883;52.760;6.610;2022-12-18T11:15:57;-2.10;99.90
59098;DHT22;44883;52.760;6.610;2022-12-18T11:20:56;-2.10;99.90
59098;DHT22;44883;52.760;6.610;2022-12-18T11:23:23;-2.10;99.90
59098;DHT22;44883;52.760;6.610;2022-12-18T11:25:57;-2.00;99.90
59098;DHT22;44883;52.760;6.610;2022-12-18T11:31:27;-1.90;99.90
59098;DHT22;44883;52.760;6.610;2022-12-18T11:36:38;-1.90;99.90
59098;DHT22;44883;52.760;6.610;2022-12-18T11:44:51;-1.70;99.90
59098;DHT22;44883;52.760;6.610;2022-12-18T11:50:01;-1.60;99.90
59098;DHT22;44883;52.760;6.610;2022-12-18T11:52:33;-1.60;99.90
59098;DHT22;44883;52.760;6.610;2022-12-18T11:55:01;-1.60;99.90
59098;DHT22;44883;52.760;6.610;2022-12-18T11:57:42;-1.50;99.90
59098;DHT22;44883;52.760;6.610;2022-12-18T12:05:25;-1.50;99.90
59098;DHT22;44883;52.760;6.610;2022-12-18T12:08:22;-1.50;99.90
59098;DHT22;44883;52.760;6.610;2022-12-18T12:11:11;-1.50;99.90
59098;DHT22;44883;52.760;6.610;2022-12-18T12:24:33;-1.30;99.90
59098;DHT22;44883;52.760;6.610;2022-12-18T12:27:23;-1.30;99.90
59098;DHT22;44883;52.760;6.610;2022-12-18T12:40:13;-1.10;99.90
59098;DHT22;44883;52.760;6.610;2022-12-18T12:43:12;-1.20;99.90
59098;DHT22;44883;52.760;6.610;2022-12-18T12:45:55;-1.20;99.90
59098;DHT22;44883;52.760;6.610;2022-12-18T12:51:12;-1.10;99.90
59098;DHT22;44883;52.760;6.610;2022-12-18T12:53:39;-1.10;99.90
59098;DHT22;44883;52.760;6.610;2022-12-18T12:56:08;-1.00;99.90
59098;DHT22;44883;52.760;6.610;2022-12-18T13:09:08;-0.90;99.90
59098;DHT22;44883;52.760;6.610;2022-12-18T13:11:47;-0.90;99.90
59098;DHT22;44883;52.760;6.610;2022-12-18T13:14:35;-0.90;99.90
59098;DHT22;44883;52.760;6.610;2022-12-18T13:19:50;-0.80;99.90
59098;DHT22;44883;52.760;6.610;2022-12-18T13:22:24;-0.80;99.90
59098;DHT22;44883;52.760;6.610;2022-12-18T13:24:50;-0.70;99.90
59098;DHT22;44883;52.760;6.610;2022-12-18T13:35:41;-0.70;99.90
59098;DHT22;44883;52.760;6.610;2022-12-18T13:38:42;-0.70;99.90
59098;DHT22;44883;52.760;6.610;2022-12-18T13:41:22;-0.60;99.90
59098;DHT22;44883;52.760;6.610;2022-12-18T13:43:51;-0.60;99.90
59098;DHT22;44883;52.760;6.610;2022-12-18T13:46:30;-0.60;99.90
59098;DHT22;44883;52.760;6.610;2022-12-18T13:51:44;-0.60;99.90
59098;DHT22;44883;52.760;6.610;2022-12-18T13:55:05;-0.60;99.90
59098;DHT22;44883;52.760;6.610;2022-12-18T13:57:27;-0.60;99.90
59098;DHT22;44883;52.760;6.610;2022-12-18T13:59:53;-0.60;99.90
59098;DHT22;44883;52.760;6.610;2022-12-18T14:02:24;-0.60;99.90
59098;DHT22;44883;52.760;6.610;2022-12-18T14:04:52;-0.60;99.90
59098;DHT22;44883;52.760;6.610;2022-12-18T14:07:23;-0.60;99.90
59098;DHT22;44883;52.760;6.610;2022-12-18T14:09:51;-0.60;99.90
59098;DHT22;44883;52.760;6.610;2022-12-18T14:12:24;-0.60;99.90
59098;DHT22;44883;52.760;6.610;2022-12-18T14:20:34;-0.70;99.90
59098;DHT22;44883;52.760;6.610;2022-12-18T14:23:00;-0.70;99.90
59098;DHT22;44883;52.760;6.610;2022-12-18T14:25:27;-0.70;99.90
59098;DHT22;44883;52.760;6.610;2022-12-18T14:28:14;-0.70;99.90
59098;DHT22;44883;52.760;6.610;2022-12-18T14:30:42;-0.80;99.90
59098;DHT22;44883;52.760;6.610;2022-12-18T14:35:36;-0.80;99.90
59098;DHT22;44883;52.760;6.610;2022-12-18T14:40:36;-0.80;99.90
59098;DHT22;44883;52.760;6.610;2022-12-18T14:43:02;-0.80;99.90
59098;DHT22;44883;52.760;6.610;2022-12-18T14:45:43;-0.90;99.90
59098;DHT22;44883;52.760;6.610;2022-12-18T14:48:19;-0.90;99.90
59098;DHT22;44883;52.760;6.610;2022-12-18T14:51:03;-0.90;99.90
59098;DHT22;44883;52.760;6.610;2022-12-18T14:53:39;-1.00;99.90
59098;DHT22;44883;52.760;6.610;2022-12-18T14:56:20;-1.00;99.90
59098;DHT22;44883;52.760;6.610;2022-12-18T14:58:56;-1.00;99.90
59098;DHT22;44883;52.760;6.610;2022-12-18T15:01:28;-1.00;99.90
59098;DHT22;44883;52.760;6.610;2022-12-18T15:03:55;-1.00;99.90
59098;DHT22;44883;52.760;6.610;2022-12-18T15:08:51;-1.00;99.90
59098;DHT22;44883;52.760;6.610;2022-12-18T15:14:32;-1.10;99.90
59098;DHT22;44883;52.760;6.610;2022-12-18T15:16:59;-1.10;99.90
59098;DHT22;44883;52.760;6.610;2022-12-18T15:19:53;-1.10;99.90
59098;DHT22;44883;52.760;6.610;2022-12-18T15:22:28;-1.10;99.90
59098;DHT22;44883;52.760;6.610;2022-12-18T15:24:55;-1.20;99.90
59098;DHT22;44883;52.760;6.610;2022-12-18T15:27:31;-1.20;99.90
59098;DHT22;44883;52.760;6.610;2022-12-18T15:32:36;-1.10;99.90
59098;DHT22;44883;52.760;6.610;2022-12-18T15:35:11;-1.10;99.90
59098;DHT22;44883;52.760;6.610;2022-12-18T15:37:38;-1.10;99.90
59098;DHT22;44883;52.760;6.610;2022-12-18T15:40:04;-1.20;99.90
59098;DHT22;44883;52.760;6.610;2022-12-18T15:42:30;-1.20;99.90
59098;DHT22;44883;52.760;6.610;2022-12-18T15:45:15;-1.20;99.90
59098;DHT22;44883;52.760;6.610;2022-12-18T15:47:41;-1.20;99.90
59098;DHT22;44883;52.760;6.610;2022-12-18T15:50:09;-1.20;99.90
59098;DHT22;44883;52.760;6.610;2022-12-18T15:52:43;-1.20;99.90
59098;DHT22;44883;52.760;6.610;2022-12-18T15:55:15;-1.10;99.90
59098;DHT22;44883;52.760;6.610;2022-12-18T15:57:59;-1.20;99.90
59098;DHT22;44883;52.760;6.610;2022-12-18T16:00:25;-1.10;99.90
59098;DHT22;44883;52.760;6.610;2022-12-18T16:02:51;-1.20;99.90
59098;DHT22;44883;52.760;6.610;2022-12-18T16:05:18;-1.20;99.90
59098;DHT22;44883;52.760;6.610;2022-12-18T16:07:45;-1.20;99.90
59098;DHT22;44883;52.760;6.610;2022-12-18T16:10:11;-1.20;99.90
59098;DHT22;44883;52.760;6.610;2022-12-18T16:12:37;-1.20;99.90
59098;DHT22;44883;52.760;6.610;2022-12-18T16:15:04;-1.20;99.90
59098;DHT22;44883;52.760;6.610;2022-12-18T16:17:30;-1.20;99.90
59098;DHT22;44883;52.760;6.610;2022-12-18T16:19:56;-1.10;99.90
59098;DHT22;44883;52.760;6.610;2022-12-18T16:22:25;-1.10;99.90
59098;DHT22;44883;52.760;6.610;2022-12-18T16:24:52;-1.10;99.90
59098;DHT22;44883;52.760;6.610;2022-12-18T16:27:19;-1.10;99.90
59098;DHT22;44883;52.760;6.610;2022-12-18T16:29:45;-1.20;99.90
59098;DHT22;44883;52.760;6.610;2022-12-18T16:32:14;-1.20;99.90
59098;DHT22;44883;52.760;6.610;2022-12-18T16:34:41;-1.20;99.90
59098;DHT22;44883;52.760;6.610;2022-12-18T16:37:08;-1.30;99.90
59098;DHT22;44883;52.760;6.610;2022-12-18T16:39:35;-1.30;99.90
59098;DHT22;44883;52.760;6.610;2022-12-18T16:42:03;-1.20;99.90
59098;DHT22;44883;52.760;6.610;2022-12-18T16:44:29;-1.20;99.90
59098;DHT22;44883;52.760;6.610;2022-12-18T16:46:55;-1.20;99.90
59098;DHT22;44883;52.760;6.610;2022-12-18T16:49:27;-1.20;99.90
59098;DHT22;44883;52.760;6.610;2022-12-18T16:51:53;-1.20;99.90
59098;DHT22;44883;52.760;6.610;2022-12-18T16:54:19;-1.10;99.90
59098;DHT22;44883;52.760;6.610;2022-12-18T16:56:44;-1.10;99.90
59098;DHT22;44883;52.760;6.610;2022-12-18T16:59:12;-1.00;99.90
59098;DHT22;44883;52.760;6.610;2022-12-18T17:01:38;-1.10;99.90
59098;DHT22;44883;52.760;6.610;2022-12-18T17:04:05;-1.10;99.90
59098;DHT22;44883;52.760;6.610;2022-12-18T17:06:33;-1.10;99.90
59098;DHT22;44883;52.760;6.610;2022-12-18T17:09:01;-1.10;99.90
59098;DHT22;44883;52.760;6.610;2022-12-18T17:11:29;-1.10;99.90
59098;DHT22;44883;52.760;6.610;2022-12-18T17:13:55;-1.00;99.90
59098;DHT22;44883;52.760;6.610;2022-12-18T17:16:22;-1.00;99.90
59098;DHT22;44883;52.760;6.610;2022-12-18T17:18:48;-1.00;99.90
59098;DHT22;44883;52.760;6.610;2022-12-18T17:21:14;-1.00;99.90
59098;DHT22;44883;52.760;6.610;2022-12-18T17:23:41;-1.00;99.90
59098;DHT22;44883;52.760;6.610;2022-12-18T17:26:08;-1.00;99.90
59098;DHT22;44883;52.760;6.610;2022-12-18T17:28:36;-1.00;99.90
59098;DHT22;44883;52.760;6.610;2022-12-18T17:31:13;-1.00;99.90
59098;DHT22;44883;52.760;6.610;2022-12-18T17:33:39;-1.00;99.90
59098;DHT22;44883;52.760;6.610;2022-12-18T17:36:05;-0.90;99.90
59098;DHT22;44883;52.760;6.610;2022-12-18T17:38:31;-0.90;99.90
59098;DHT22;44883;52.760;6.610;2022-12-18T17:41:02;-0.90;99.90
59098;DHT22;44883;52.760;6.610;2022-12-18T17:43:27;-0.90;99.90
59098;DHT22;44883;52.760;6.610;2022-12-18T17:45:53;-0.90;99.90
59098;DHT22;44883;52.760;6.610;2022-12-18T17:48:19;-0.90;99.90
59098;DHT22;44883;52.760;6.610;2022-12-18T17:50:44;-0.90;99.90
59098;DHT22;44883;52.760;6.610;2022-12-18T17:53:10;-0.90;99.90
59098;DHT22;44883;52.760;6.610;2022-12-18T17:55:36;-0.80;99.90
59098;DHT22;44883;52.760;6.610;2022-12-18T17:58:01;-0.80;99.90
59098;DHT22;44883;52.760;6.610;2022-12-18T18:00:27;-0.80;99.90
59098;DHT22;44883;52.760;6.610;2022-12-18T18:02:53;-0.80;99.90
59098;DHT22;44883;52.760;6.610;2022-12-18T18:05:19;-0.80;99.90
59098;DHT22;44883;52.760;6.610;2022-12-18T18:07:45;-0.80;99.90
59098;DHT22;44883;52.760;6.610;2022-12-18T18:10:11;-0.80;99.90